Hlavní strana
METAR-TAF:

METAR-TAF

Letiště :

Tupelo Regional Airport (C.D. Lemons Field)

Tupelo, Mississippi, Spojené státy americké

zeměpisná šířka: 34-16-05N, zeměpisná délka: 088-46-12W, výška: 106 m

Aktuální stav počasí

Zpráva byla vytvořena před 33 minutami, v 16:53 UTC
Severní vítr 13 kt
Teplota 9°C
Vlhkost vzduchu 43%
Tlak 1027 hPa
Viditelnost: 16.1 km
Jasno

METAR: KTUP 151653Z 36013KT 10SM CLR 09/M03 A3033 RMK AO2 SLP269 T00941028 $

Čas: 11:26 (17:26 UTC)

Předpověď počasí

Zpráva byla vytvořena před 6 hodinami a 6 minutami, v 11:20 UTC
Předpověď platná od 15 v 12 UTC do 16 v 12 UTC
Severní vítr 6 kt
Viditelnost: 10 km
Jasno
Od 15 v 1500 UTC
Severoseverovýchodní vítr 10 kt s nárazy do 15 kt
Viditelnost: 10 km
Jasno
Od 16 v 0000 UTC
Severoseverovýchodní vítr 5 kt
Viditelnost: 10 km
Jasno

TAF: KTUP 151120Z 1512/1612 01006KT P6SM SKC FM151500 02010G15KT P6SM SKC FM160000 02005KT P6SM SKC

Stav a předpovědi počasí z více než 4 000 letišť (zprávy METAR a TAF).

Červené a žluté tečky na mapě představují dostupné meteorologické stanice.

Když kurzor umístíte na tečku, zobrazí se název stanice.

Pak kliknutím zobrazíte stav a předpověď počasí.

Chcete-li změnit mapu, kliknutím na zelené tlačítko se znaménkem +mapu přiblížíte, kliknutím na zelené tlačítko se znaménkem – mapu oddálíte a kliknutím na zelené šipky přejdete na sousední mapy.


METAR-TAF: